カトマンズ の空港の天気 - METARとTAF

トリブバン国際空港 ( VNKT / KTM ) - ネパール カトマンズ
飛行場実況気象(Metar)
観測時間09/26 09:05 NPT (09/26 03:20 UTC)
風向・風速不定 1m/s
視程5000m
天気現象もや
少しの雲 雲底高度 300m
全天の4割程度の雲 雲底高度 910m
気温24℃
湿度78%
気圧1016hPa
METARVNKT 260320Z VRB02KT 5000 BR FEW010 SCT030 24/20 Q1016 NOSIG
過去の天気等 Google飛行場航空写真 Wunderground天気予報

過去48時間のMETAR

飛行場予報(TAF)
発表時間: 9/26 04:45 NPT (9/25 23:00 UTC)
予報対象時間: 26日5時 NPT ~ 27日5時 NPT
風向・風速静穏
視程4000m
天気現象もや
少しの雲 雲底高度 300m
全天の4割程度の雲 雲底高度 910m
全天の8割程度の雲 雲底高度 3050m
26日8時 NPT ~ 26日10時 NPT に徐々に
風向・風速南南西 2m/s
視程7000m
少しの雲 雲底高度 460m
全天の4割程度の雲 雲底高度 910m
26日12時 NPT ~ 26日13時 NPT に徐々に
風向・風速西北西 4m/s
視程8000m
少しの雲 雲底高度 610m
全天の4割程度の雲 雲底高度 910m
26日13時 NPT から 確率 40% で
風向・風速不定 6m/s
視程4000m
天気現象弱い雷雨
少しの雲 雲底高度 460m
少しの積乱雲 雲底高度 760m
全天の8割程度の雲 雲底高度 3050m
26日18時 NPT ~ 26日19時 NPT に徐々に
風向・風速西南西 2m/s
視程7000m
少しの雲 雲底高度 460m
全天の4割程度の雲 雲底高度 910m
26日20時 NPT から 確率 30% で
視程5000m
TAF VNKT 252300Z 2600/2624 00000KT 4000 BR FEW010 SCT030 BKN100
BECMG 2603/2605 21004KT 7000 FEW015 SCT030
BECMG 2607/2608 29008KT 8000 FEW020 SCT030
PROB40 2608/2612 VRB12KT 4000 -TSRA FEW015 FEW025CB BKN100
BECMG 2613/2614 24004KT 7000 FEW015 SCT030
PROB30 2615/2620 5000 -TSRA/SHRA FEW025CB BKN100